地図

経路データ

SID SEASON NUMBER BASIN SUBBASIN NAME ISO_TIME NATURE LAT LON WMO_WIND WMO_PRES WMO_AGENCY TRACK_TYPE DIST2LAND LANDFALL IFLAG USA_AGENCY USA_ATCF_ID USA_LAT USA_LON USA_RECORD USA_STATUS USA_WIND USA_PRES USA_SSHS USA_R34_NE USA_R34_SE USA_R34_SW USA_R34_NW USA_R50_NE USA_R50_SE USA_R50_SW USA_R50_NW USA_R64_NE USA_R64_SE USA_R64_SW USA_R64_NW USA_POCI USA_ROCI USA_RMW USA_EYE TOKYO_LAT TOKYO_LON TOKYO_GRADE TOKYO_WIND TOKYO_PRES TOKYO_R50_DIR TOKYO_R50_LONG TOKYO_R50_SHORT TOKYO_R30_DIR TOKYO_R30_LONG TOKYO_R30_SHORT TOKYO_LAND CMA_LAT CMA_LON CMA_CAT CMA_WIND CMA_PRES HKO_LAT HKO_LON HKO_CAT HKO_WIND HKO_PRES NEWDELHI_LAT NEWDELHI_LON NEWDELHI_GRADE NEWDELHI_WIND NEWDELHI_PRES NEWDELHI_CI NEWDELHI_DP NEWDELHI_POCI REUNION_LAT REUNION_LON REUNION_TYPE REUNION_WIND REUNION_PRES REUNION_TNUM REUNION_CI REUNION_RMW REUNION_R34_NE REUNION_R34_SE REUNION_R34_SW REUNION_R34_NW REUNION_R50_NE REUNION_R50_SE REUNION_R50_SW REUNION_R50_NW REUNION_R64_NE REUNION_R64_SE REUNION_R64_SW REUNION_R64_NW BOM_LAT BOM_LON BOM_TYPE BOM_WIND BOM_PRES BOM_TNUM BOM_CI BOM_RMW BOM_R34_NE BOM_R34_SE BOM_R34_SW BOM_R34_NW BOM_R50_NE BOM_R50_SE BOM_R50_SW BOM_R50_NW BOM_R64_NE BOM_R64_SE BOM_R64_SW BOM_R64_NW BOM_ROCI BOM_POCI BOM_EYE BOM_POS_METHOD BOM_PRES_METHOD NADI_LAT NADI_LON NADI_CAT NADI_WIND NADI_PRES WELLINGTON_LAT WELLINGTON_LON WELLINGTON_WIND WELLINGTON_PRES DS824_LAT DS824_LON DS824_STAGE DS824_WIND DS824_PRES TD9636_LAT TD9636_LON TD9636_STAGE TD9636_WIND TD9636_PRES TD9635_LAT TD9635_LON TD9635_WIND TD9635_PRES TD9635_ROCI NEUMANN_LAT NEUMANN_LON NEUMANN_CLASS NEUMANN_WIND NEUMANN_PRES MLC_LAT MLC_LON MLC_CLASS MLC_WIND MLC_PRES USA_GUST BOM_GUST BOM_GUST_PER REUNION_GUST REUNION_GUST_PER USA_SEAHGT USA_SEARAD_NE USA_SEARAD_SE USA_SEARAD_SW USA_SEARAD_NW STORM_SPEED STORM_DIR
1996179N13266 1996 45 EP MM BORIS 1996-06-27 00:00:00 TS 12.7000 -94.4000 25 1010 hurdat_epa main 311 311 O_____________ hurdat_epa EP041996 12.7000 -94.4000 TD 25 1010 -1 6 281
1996179N13266 1996 45 EP MM BORIS 1996-06-27 03:00:00 TS 12.7576 -94.7125 main 326 326 P_____________ EP041996 12.7576 -94.7125 TD 25 1010 -1 6 280
1996179N13266 1996 45 EP MM BORIS 1996-06-27 06:00:00 TS 12.8000 -95.0000 25 1010 hurdat_epa main 349 342 O_____________ hurdat_epa EP041996 12.8000 -95.0000 TD 25 1010 -1 5 276
1996179N13266 1996 45 EP MM BORIS 1996-06-27 09:00:00 TS 12.8149 -95.2500 main 338 333 P_____________ EP041996 12.8149 -95.2500 TD 25 1009 -1 5 270
1996179N13266 1996 45 EP MM BORIS 1996-06-27 12:00:00 TS 12.8000 -95.5000 25 1009 hurdat_epa main 333 328 O_____________ hurdat_epa EP041996 12.8000 -95.5000 TD 25 1009 -1 5 260
1996179N13266 1996 45 EP MM BORIS 1996-06-27 15:00:00 TS 12.7274 -95.7776 main 335 329 P_____________ EP041996 12.7274 -95.7776 TD 25 1009 -1 6 260
1996179N13266 1996 45 EP MM BORIS 1996-06-27 18:00:00 TS 12.7000 -96.1000 25 1009 hurdat_epa main 329 313 O_____________ hurdat_epa EP041996 12.7000 -96.1000 TD 25 1009 -1 7 276
1996179N13266 1996 45 EP MM BORIS 1996-06-27 21:00:00 TS 12.8050 -96.4850 main 313 291 P_____________ EP041996 12.8050 -96.4850 TD 25 1008 -1 8 291
1996179N13266 1996 45 EP MM BORIS 1996-06-28 00:00:00 TS 13.0000 -96.9000 25 1008 hurdat_epa main 292 276 O_____________ hurdat_epa EP041996 13.0000 -96.9000 TD 25 1008 -1 9 298
1996179N13266 1996 45 EP MM BORIS 1996-06-28 03:00:00 TS 13.2350 -97.3075 main 279 258 P_____________ EP041996 13.2350 -97.3075 TD 27 1007 -1 9 303
1996179N13266 1996 45 EP MM BORIS 1996-06-28 06:00:00 TS 13.5000 -97.7000 30 1007 hurdat_epa main 263 253 O_____________ hurdat_epa EP041996 13.5000 -97.7000 TD 30 1007 -1 9 305
1996179N13266 1996 45 EP MM BORIS 1996-06-28 09:00:00 TS 13.7424 -98.0651 main 259 230 P_____________ EP041996 13.7424 -98.0651 TD 32 1006 -1 8 306
1996179N13266 1996 45 EP MM BORIS 1996-06-28 12:00:00 TS 14.0000 -98.4000 35 1006 hurdat_epa main 232 213 O_____________ hurdat_epa EP041996 14.0000 -98.4000 TS 35 1006 0 8 311
1996179N13266 1996 45 EP MM BORIS 1996-06-28 15:00:00 TS 14.2924 -98.7076 main 213 195 P_____________ EP041996 14.2924 -98.7076 TS 37 1004 0 8 316
1996179N13266 1996 45 EP MM BORIS 1996-06-28 18:00:00 TS 14.6000 -99.0000 40 1002 hurdat_epa main 195 173 O_____________ hurdat_epa EP041996 14.6000 -99.0000 TS 40 1002 0 8 316
1996179N13266 1996 45 EP MM BORIS 1996-06-28 21:00:00 TS 14.8925 -99.3001 main 173 163 P_____________ EP041996 14.8925 -99.3001 TS 47 998 0 8 316
1996179N13266 1996 45 EP MM BORIS 1996-06-29 00:00:00 TS 15.2000 -99.6000 55 995 hurdat_epa main 163 134 O_____________ hurdat_epa EP041996 15.2000 -99.6000 TS 55 995 0 9 318
1996179N13266 1996 45 EP MM BORIS 1996-06-29 03:00:00 TS 15.5425 -99.9001 main 135 104 P_____________ EP041996 15.5425 -99.9001 TS 60 991 0 9 320
1996179N13266 1996 45 EP MM BORIS 1996-06-29 06:00:00 TS 15.9000 -100.200 65 987 hurdat_epa main 104 89 O_____________ hurdat_epa EP041996 15.9000 -100.200 HU 65 987 1 9 320
1996179N13266 1996 45 EP MM BORIS 1996-06-29 09:00:00 TS 16.2274 -100.493 main 94 64 P_____________ EP041996 16.2274 -100.493 HU 72 983 1 9 321
1996179N13266 1996 45 EP MM BORIS 1996-06-29 12:00:00 TS 16.6000 -100.800 80 979 hurdat_epa main 64 33 O_____________ hurdat_epa EP041996 16.6000 -100.800 HU 80 979 1 11 323
1996179N13266 1996 45 EP MM BORIS 1996-06-29 15:00:00 TS 17.0700 -101.143 main 22 0 P_____________ EP041996 17.0700 -101.143 HU 80 979 1 12 326
1996179N13266 1996 45 EP MM BORIS 1996-06-29 18:00:00 TS 17.6000 -101.500 80 980 hurdat_epa main 0 0 O_____________ hurdat_epa EP041996 17.6000 -101.500 L HU 80 980 1 13 328
1996179N13266 1996 45 EP MM BORIS 1996-06-29 21:00:00 TS 18.1649 -101.850 main 0 0 P_____________ EP041996 18.1649 -101.850 HU 72 985 1 13 329
1996179N13266 1996 45 EP MM BORIS 1996-06-30 00:00:00 TS 18.7000 -102.200 65 990 hurdat_epa main 0 0 O_____________ hurdat_epa EP041996 18.7000 -102.200 HU 65 990 1 12 327
1996179N13266 1996 45 EP MM BORIS 1996-06-30 03:00:00 TS 19.1599 -102.543 main 0 0 P_____________ EP041996 19.1599 -102.543 HU 55 995 0 10 320
1996179N13266 1996 45 EP MM BORIS 1996-06-30 06:00:00 TS 19.5000 -102.900 45 1000 hurdat_epa main 0 0 O_____________ hurdat_epa EP041996 19.5000 -102.900 TS 45 1000 0 9 309
1996179N13266 1996 45 EP MM BORIS 1996-06-30 09:00:00 TS 19.7325 -103.292 main 0 0 P_____________ EP041996 19.7325 -103.292 TS 37 1002 0 8 292
1996179N13266 1996 45 EP MM BORIS 1996-06-30 12:00:00 TS 19.8000 -103.700 30 1004 hurdat_epa main 0 0 O_____________ hurdat_epa EP041996 19.8000 -103.700 TD 30 1004 -1 8 268
1996179N13266 1996 45 EP MM BORIS 1996-06-30 15:00:00 TS 19.7100 -104.115 main 0 0 P_____________ EP041996 19.7100 -104.115 TD 30 1004 -1 8 248
1996179N13266 1996 45 EP MM BORIS 1996-06-30 18:00:00 TS 19.5000 -104.500 30 1005 hurdat_epa main 0 0 O_____________ hurdat_epa EP041996 19.5000 -104.500 TD 30 1005 -1 8 236
1996179N13266 1996 45 EP MM BORIS 1996-06-30 21:00:00 TS 19.2425 -104.838 main 0 0 P_____________ EP041996 19.2425 -104.838 TD 27 1005 -1 8 229
1996179N13266 1996 45 EP MM BORIS 1996-07-01 00:00:00 TS 19.0000 -105.100 25 1006 hurdat_epa main 38 38 O_____________ hurdat_epa EP041996 19.0000 -105.100 TD 25 1006 -1 6 227
1996179N13266 1996 45 EP MM BORIS 1996-07-01 03:00:00 TS 18.8474 -105.280 main 69 69 P_____________ EP041996 18.8474 -105.280 TD 25 1006 -1 3 235
1996179N13266 1996 45 EP MM BORIS 1996-07-01 06:00:00 TS 18.8000 -105.400 25 1007 hurdat_epa main 76 76 O_____________ hurdat_epa EP041996 18.8000 -105.400 TD 25 1007 -1 2 276
1996179N13266 1996 45 EP MM BORIS 1996-07-01 09:00:00 TS 18.8675 -105.502 main 76 76 P_____________ EP041996 18.8675 -105.502 TD 25 1007 -1 3 316
1996179N13266 1996 45 EP MM BORIS 1996-07-01 12:00:00 TS 19.0000 -105.600 25 1007 hurdat_epa main 77 O_____________ hurdat_epa EP041996 19.0000 -105.600 TD 25 1007 -1 3 327

IBTrACS Databaseについて

本データベースは、米国NOAAが公開する1842年以降の世界の熱帯低気圧のベストトラックデータアーカイブInternational Best Track Archive for Climate Stewardship (IBTrACS)を、ウェブで閲覧しやすい形式に変換したものです。

最終更新日:2021-10-21